createdAt,value
2017-06-28T00:00:32.373Z,78.36
2017-06-28T00:01:34.341Z,78.75
2017-06-28T00:02:36.166Z,78.36
2017-06-28T00:03:37.982Z,79.13
2017-06-28T00:04:39.846Z,79.13
2017-06-28T00:05:41.709Z,78.94
2017-06-28T00:06:43.578Z,78.94
2017-06-28T00:07:57.731Z,78.65
2017-06-28T00:08:59.617Z,78.75
2017-06-28T00:10:01.506Z,78.65
2017-06-28T00:11:03.390Z,78.65
2017-06-28T00:12:05.194Z,78.65
2017-06-28T00:13:07.019Z,78.75
2017-06-28T00:14:08.902Z,78.85
2017-06-28T00:15:10.764Z,78.75
2017-06-28T00:16:12.648Z,79.13
2017-06-28T00:17:26.786Z,79.13
2017-06-28T00:18:28.646Z,79.33
2017-06-28T00:19:30.527Z,79.03
2017-06-28T00:20:32.394Z,79.23
2017-06-28T00:21:34.214Z,79.23
2017-06-28T00:22:36.030Z,79.23
2017-06-28T00:23:37.901Z,79.23
2017-06-28T00:24:39.765Z,79.33
2017-06-28T00:25:41.649Z,79.23
2017-06-28T00:26:55.804Z,79.33
2017-06-28T00:27:57.684Z,79.61
2017-06-28T00:28:59.548Z,79.52
2017-06-28T00:30:01.414Z,79.90
2017-06-28T00:31:03.235Z,80.15
2017-06-28T00:32:05.028Z,80.44
2017-06-28T00:33:06.896Z,80.83
2017-06-28T00:34:08.782Z,81.40
2017-06-28T00:35:10.644Z,81.21
2017-06-28T00:36:24.777Z,81.30
2017-06-28T00:37:26.644Z,81.30
2017-06-28T00:38:28.532Z,80.35
2017-06-28T00:39:30.415Z,80.92
2017-06-28T00:40:32.240Z,80.35
2017-06-28T00:41:34.067Z,80.15
2017-06-28T00:42:35.946Z,80.44
2017-06-28T00:43:37.808Z,80.35
2017-06-28T00:44:39.692Z,80.06
2017-06-28T00:45:53.850Z,80.77
2017-06-28T00:46:55.733Z,80.54
2017-06-28T00:47:57.597Z,80.35
2017-06-28T00:48:59.458Z,80.35
2017-06-28T00:50:01.278Z,80.44
2017-06-28T00:51:03.078Z,80.63
2017-06-28T00:52:04.945Z,80.25
2017-06-28T00:53:06.824Z,80.44
2017-06-28T00:54:08.692Z,80.35
2017-06-28T00:55:22.826Z,80.25
2017-06-28T00:56:24.690Z,80.35
2017-06-28T00:57:26.576Z,81.02
2017-06-28T00:58:28.465Z,81.60
2017-06-28T00:59:30.290Z,81.60
2017-06-28T01:00:32.084Z,81.70
2017-06-28T01:01:33.950Z,81.50
2017-06-28T01:02:35.807Z,81.60
2017-06-28T01:03:37.674Z,81.88
2017-06-28T01:04:51.828Z,81.50
2017-06-28T01:05:53.695Z,81.88
2017-06-28T01:06:55.633Z,82.27
2017-06-28T01:07:57.586Z,81.88
2017-06-28T01:08:59.365Z,82.23
2017-06-28T01:10:01.182Z,82.90
2017-06-28T01:11:03.052Z,83.29
2017-06-28T01:12:04.936Z,82.90
2017-06-28T01:13:06.797Z,83.00
2017-06-28T01:14:20.935Z,83.19
2017-06-28T01:15:22.801Z,83.39
2017-06-28T01:16:24.683Z,83.39
2017-06-28T01:17:26.550Z,83.39
2017-06-28T01:18:28.349Z,83.58
2017-06-28T01:19:30.150Z,82.90
2017-06-28T01:20:32.032Z,82.90
2017-06-28T01:21:33.916Z,83.19
2017-06-28T01:22:35.775Z,82.90
2017-06-28T01:23:49.915Z,83.00
2017-06-28T01:24:51.809Z,83.09
2017-06-28T01:25:53.687Z,83.09
2017-06-28T01:26:55.557Z,83.00
2017-06-28T01:27:57.382Z,83.04
2017-06-28T01:28:59.198Z,82.81
2017-06-28T01:30:01.069Z,82.81
2017-06-28T01:31:02.949Z,82.94
2017-06-28T01:32:04.814Z,82.52
2017-06-28T01:33:18.939Z,82.08
2017-06-28T01:34:20.807Z,82.27
2017-06-28T01:35:22.687Z,81.98
2017-06-28T01:36:24.552Z,82.08
2017-06-28T01:37:26.375Z,82.17
2017-06-28T01:38:28.168Z,81.98
2017-06-28T01:39:30.036Z,82.17
2017-06-28T01:40:31.923Z,81.79
2017-06-28T01:41:33.808Z,81.60
2017-06-28T01:42:47.957Z,81.60
2017-06-28T01:43:49.825Z,81.50
2017-06-28T01:44:51.689Z,81.50
2017-06-28T01:45:53.572Z,81.70
2017-06-28T01:46:55.399Z,81.60
2017-06-28T01:47:57.216Z,81.60
2017-06-28T01:48:59.078Z,81.79
2017-06-28T01:50:00.944Z,81.88
2017-06-28T01:51:02.829Z,81.79
2017-06-28T01:52:16.961Z,81.50
2017-06-28T01:53:18.842Z,82.27
2017-06-28T01:54:20.706Z,81.88
2017-06-28T01:55:22.586Z,82.17
2017-06-28T01:56:24.385Z,82.17
2017-06-28T01:57:26.184Z,81.98
2017-06-28T01:58:28.074Z,81.98
2017-06-28T01:59:29.955Z,81.98
2017-06-28T02:00:31.816Z,81.88
2017-06-28T02:01:45.948Z,82.27
2017-06-28T02:02:47.831Z,82.17
2017-06-28T02:03:49.712Z,82.27
2017-06-28T02:04:51.576Z,81.88
2017-06-28T02:05:53.385Z,82.17
2017-06-28T02:06:55.203Z,82.08
2017-06-28T02:07:57.085Z,81.88
2017-06-28T02:08:58.947Z,82.27
2017-06-28T02:10:00.811Z,81.79
2017-06-28T02:11:14.946Z,82.27
2017-06-28T02:12:16.826Z,82.08
2017-06-28T02:13:18.690Z,82.17
2017-06-28T02:14:20.555Z,81.98
2017-06-28T02:15:22.378Z,81.94
2017-06-28T02:16:24.171Z,82.27
2017-06-28T02:17:26.038Z,81.98
2017-06-28T02:18:27.925Z,82.61
2017-06-28T02:19:29.789Z,82.81
2017-06-28T02:20:43.943Z,82.71
2017-06-28T02:21:45.808Z,83.29
2017-06-28T02:22:47.675Z,83.39
2017-06-28T02:23:49.563Z,83.77
2017-06-28T02:24:51.390Z,84.16
2017-06-28T02:25:53.189Z,84.44
2017-06-28T02:26:55.071Z,84.16
2017-06-28T02:27:56.942Z,84.54
2017-06-28T02:28:58.804Z,84.06
2017-06-28T02:30:12.940Z,84.78
2017-06-28T02:31:14.807Z,84.30
2017-06-28T02:32:16.679Z,84.40
2017-06-28T02:33:18.567Z,84.59
2017-06-28T02:34:20.416Z,84.40
2017-06-28T02:35:22.239Z,84.30
2017-06-28T02:36:24.123Z,84.01
2017-06-28T02:37:25.988Z,84.34
2017-06-28T02:38:27.852Z,83.86
2017-06-28T02:39:42.041Z,83.77
2017-06-28T02:40:44.054Z,83.77
2017-06-28T02:41:45.889Z,83.77
2017-06-28T02:42:47.757Z,83.25
2017-06-28T02:43:49.577Z,83.48
2017-06-28T02:44:51.381Z,83.39
2017-06-28T02:45:53.269Z,83.48
2017-06-28T02:46:55.157Z,82.71
2017-06-28T02:47:57.043Z,83.29
2017-06-28T02:49:11.196Z,82.81
2017-06-28T02:50:13.059Z,82.71
2017-06-28T02:51:14.925Z,82.32
2017-06-28T02:52:16.796Z,82.23
2017-06-28T02:53:18.621Z,82.52
2017-06-28T02:54:20.422Z,82.32
2017-06-28T02:55:22.292Z,82.23
2017-06-28T02:56:24.179Z,82.32
2017-06-28T02:57:26.066Z,81.84
2017-06-28T02:58:40.224Z,82.42
2017-06-28T02:59:42.106Z,82.23
2017-06-28T03:00:43.969Z,82.42
2017-06-28T03:01:45.837Z,83.39
2017-06-28T03:02:47.645Z,83.44
2017-06-28T03:03:49.470Z,84.11
2017-06-28T03:04:51.356Z,84.59
2017-06-28T03:05:53.244Z,84.50
2017-06-28T03:06:55.112Z,84.40
2017-06-28T03:08:09.247Z,84.01
2017-06-28T03:09:11.138Z,84.01
2017-06-28T03:10:13.029Z,84.40
2017-06-28T03:11:14.895Z,84.21
2017-06-28T03:12:16.718Z,84.11
2017-06-28T03:13:18.521Z,84.21
2017-06-28T03:14:20.386Z,84.30
2017-06-28T03:15:22.271Z,84.59
2017-06-28T03:16:24.157Z,84.98
2017-06-28T03:17:38.295Z,84.21
2017-06-28T03:18:40.181Z,84.40
2017-06-28T03:19:42.073Z,84.88
2017-06-28T03:20:43.936Z,85.55
2017-06-28T03:21:45.759Z,85.07
2017-06-28T03:22:47.561Z,85.36
2017-06-28T03:23:49.430Z,85.27
2017-06-28T03:24:51.319Z,84.98
2017-06-28T03:25:53.209Z,85.07
2017-06-28T03:27:07.365Z,84.69
2017-06-28T03:28:09.249Z,84.98
2017-06-28T03:29:11.119Z,85.07
2017-06-28T03:30:13.009Z,85.65
2017-06-28T03:31:14.830Z,85.55
2017-06-28T03:32:16.635Z,85.36
2017-06-28T03:33:18.518Z,85.55
2017-06-28T03:34:20.390Z,85.46
2017-06-28T03:35:22.279Z,85.36
2017-06-28T03:36:36.478Z,85.17
2017-06-28T03:37:38.345Z,85.46
2017-06-28T03:38:40.212Z,85.65
2017-06-28T03:39:42.100Z,85.55
2017-06-28T03:40:43.919Z,85.46
2017-06-28T03:41:45.731Z,85.27
2017-06-28T03:42:47.614Z,85.46
2017-06-28T03:43:49.486Z,85.27
2017-06-28T03:44:51.348Z,85.75
2017-06-28T03:46:05.487Z,86.04
2017-06-28T03:47:07.356Z,86.52
2017-06-28T03:48:09.245Z,86.71
2017-06-28T03:49:11.136Z,86.52
2017-06-28T03:50:12.967Z,86.52
2017-06-28T03:51:14.769Z,86.32
2017-06-28T03:52:16.654Z,85.84
2017-06-28T03:53:18.522Z,85.94
2017-06-28T03:54:20.394Z,85.46
2017-06-28T03:55:34.549Z,85.02
2017-06-28T03:56:36.415Z,84.78
2017-06-28T03:57:38.279Z,84.06
2017-06-28T03:58:40.150Z,84.63
2017-06-28T03:59:41.973Z,83.77
2017-06-28T04:00:43.773Z,83.48
2017-06-28T04:01:45.642Z,83.96
2017-06-28T04:02:47.529Z,83.48
2017-06-28T04:03:49.398Z,83.86
2017-06-28T04:05:03.554Z,83.39
2017-06-28T04:06:05.421Z,83.29
2017-06-28T04:07:07.292Z,83.58
2017-06-28T04:08:09.175Z,83.67
2017-06-28T04:09:10.978Z,83.58
2017-06-28T04:10:12.783Z,82.90
2017-06-28T04:11:14.653Z,82.94
2017-06-28T04:12:16.518Z,82.94
2017-06-28T04:13:18.384Z,82.56
2017-06-28T04:14:32.526Z,82.85
2017-06-28T04:15:34.393Z,82.46
2017-06-28T04:16:36.279Z,81.98
2017-06-28T04:17:38.170Z,82.17
2017-06-28T04:18:39.993Z,82.27
2017-06-28T04:19:41.796Z,81.70
2017-06-28T04:20:43.668Z,81.70
2017-06-28T04:21:45.554Z,81.50
2017-06-28T04:22:47.437Z,81.30
2017-06-28T04:24:01.578Z,81.40
2017-06-28T04:25:03.462Z,81.60
2017-06-28T04:26:05.335Z,81.25
2017-06-28T04:27:07.227Z,81.35
2017-06-28T04:28:09.055Z,81.25
2017-06-28T04:29:10.881Z,81.25
2017-06-28T04:30:12.750Z,81.25
2017-06-28T04:31:14.618Z,81.45
2017-06-28T04:32:16.508Z,81.40
2017-06-28T04:33:30.709Z,81.21
2017-06-28T04:34:32.575Z,80.92
2017-06-28T04:35:34.464Z,80.96
2017-06-28T04:36:36.355Z,81.16
2017-06-28T04:37:38.185Z,81.16
2017-06-28T04:38:40.012Z,80.96
2017-06-28T04:39:41.899Z,80.96
2017-06-28T04:40:43.787Z,80.96
2017-06-28T04:41:45.657Z,80.96
2017-06-28T04:42:59.796Z,81.06
2017-06-28T04:44:01.687Z,81.63
2017-06-28T04:45:03.572Z,81.63
2017-06-28T04:46:05.447Z,81.35
2017-06-28T04:47:07.271Z,81.54
2017-06-28T04:48:09.079Z,81.73
2017-06-28T04:49:10.945Z,81.50
2017-06-28T04:50:12.839Z,81.98
2017-06-28T04:51:14.733Z,82.27
2017-06-28T04:52:28.888Z,82.56
2017-06-28T04:53:30.759Z,82.37
2017-06-28T04:54:32.635Z,82.85
2017-06-28T04:55:34.534Z,82.94
2017-06-28T04:56:36.356Z,82.90
2017-06-28T04:57:38.165Z,82.85
2017-06-28T04:58:40.056Z,83.23
2017-06-28T04:59:41.919Z,83.52
2017-06-28T05:00:43.743Z,83.81
2017-06-28T05:01:57.879Z,83.33
2017-06-28T05:02:59.747Z,82.85
2017-06-28T05:04:01.617Z,82.46
2017-06-28T05:05:03.490Z,82.70
2017-06-28T05:06:05.319Z,82.12
2017-06-28T05:07:07.145Z,81.63
2017-06-28T05:08:09.014Z,81.16
2017-06-28T05:09:10.884Z,81.45
2017-06-28T05:10:12.778Z,81.73
2017-06-28T05:11:26.932Z,81.98
2017-06-28T05:12:28.807Z,82.75
2017-06-28T05:13:30.694Z,83.42
2017-06-28T05:14:32.566Z,83.23
2017-06-28T05:15:34.355Z,82.56
2017-06-28T05:16:36.178Z,82.41
2017-06-28T05:17:38.048Z,81.63
2017-06-28T05:18:39.922Z,80.96
2017-06-28T05:19:41.812Z,80.77
2017-06-28T05:20:55.948Z,80.71
2017-06-28T05:21:57.837Z,79.75
2017-06-28T05:22:59.700Z,79.36
2017-06-28T05:24:01.570Z,78.98
2017-06-28T05:25:03.376Z,78.83
2017-06-28T05:26:05.184Z,78.63
2017-06-28T05:27:07.069Z,78.69
2017-06-28T05:28:08.941Z,78.59
2017-06-28T05:29:10.832Z,78.40
2017-06-28T05:30:24.970Z,78.88
2017-06-28T05:31:26.842Z,78.98
2017-06-28T05:32:28.711Z,79.17
2017-06-28T05:33:30.604Z,78.98
2017-06-28T05:34:32.434Z,78.59
2017-06-28T05:35:34.242Z,78.44
2017-06-28T05:36:36.132Z,77.76
2017-06-28T05:37:38.023Z,77.96
2017-06-28T05:38:39.912Z,78.15
2017-06-28T05:39:54.053Z,78.69
2017-06-28T05:40:55.940Z,78.59
2017-06-28T05:41:57.831Z,78.44
2017-06-28T05:42:59.720Z,78.40
2017-06-28T05:44:01.548Z,78.44
2017-06-28T05:45:03.374Z,78.73
2017-06-28T05:46:05.263Z,78.44
2017-06-28T05:47:07.155Z,78.06
2017-06-28T05:48:09.047Z,77.28
2017-06-28T05:49:23.261Z,76.75
2017-06-28T05:50:25.149Z,76.17
2017-06-28T05:51:27.045Z,75.97
2017-06-28T05:52:28.933Z,75.40
2017-06-28T05:53:30.763Z,75.49
2017-06-28T05:54:32.589Z,75.34
2017-06-28T05:55:34.462Z,75.53
2017-06-28T05:56:36.349Z,75.49
2017-06-28T05:57:38.220Z,75.88
2017-06-28T05:58:52.361Z,76.13
2017-06-28T05:59:54.252Z,76.17
2017-06-28T06:00:56.143Z,76.03
2017-06-28T06:01:58.031Z,75.88
2017-06-28T06:02:59.844Z,75.68
2017-06-28T06:04:01.647Z,75.20
2017-06-28T06:05:03.516Z,75.68
2017-06-28T06:06:05.389Z,75.30
2017-06-28T06:07:07.260Z,75.68
2017-06-28T06:08:21.421Z,76.42
2017-06-28T06:09:23.291Z,76.61
2017-06-28T06:10:25.182Z,77.25
2017-06-28T06:11:27.060Z,77.96
2017-06-28T06:12:28.891Z,78.50
2017-06-28T06:13:30.717Z,78.59
2017-06-28T06:14:32.590Z,78.59
2017-06-28T06:15:34.486Z,78.15
2017-06-28T06:16:36.376Z,77.38
2017-06-28T06:17:50.512Z,77.09
2017-06-28T06:18:52.411Z,76.36
2017-06-28T06:19:54.266Z,76.61
2017-06-28T06:20:56.152Z,76.90
2017-06-28T06:21:57.967Z,76.71
2017-06-28T06:22:59.789Z,76.93
2017-06-28T06:24:01.656Z,76.36
2017-06-28T06:25:03.529Z,75.97
2017-06-28T06:26:05.418Z,75.43
2017-06-28T06:27:19.559Z,74.76
2017-06-28T06:28:21.434Z,74.60
2017-06-28T06:29:23.323Z,73.93
2017-06-28T06:30:25.194Z,73.54
2017-06-28T06:31:27.027Z,73.44
2017-06-28T06:32:28.833Z,72.86
2017-06-28T06:33:30.727Z,72.96
2017-06-28T06:34:32.629Z,73.06
2017-06-28T06:35:34.491Z,73.25
2017-06-28T06:36:48.657Z,72.96
2017-06-28T06:37:50.545Z,72.86
2017-06-28T06:38:52.435Z,72.38
2017-06-28T06:39:54.306Z,72.90
2017-06-28T06:40:56.131Z,72.22
2017-06-28T06:41:57.937Z,72.13
2017-06-28T06:42:59.812Z,72.19
2017-06-28T06:44:01.704Z,72.67
2017-06-28T06:45:03.592Z,72.96
2017-06-28T06:46:17.735Z,73.15
2017-06-28T06:47:19.606Z,72.58
2017-06-28T06:48:21.478Z,72.77
2017-06-28T06:49:23.367Z,72.96
2017-06-28T06:50:25.202Z,73.15
2017-06-28T06:51:27.035Z,72.77
2017-06-28T06:52:28.924Z,72.67
2017-06-28T06:53:30.818Z,72.52
2017-06-28T06:54:32.707Z,72.13
2017-06-28T06:55:46.870Z,72.42
2017-06-28T06:56:48.762Z,72.13
2017-06-28T06:57:50.659Z,71.64
2017-06-28T06:58:52.535Z,71.84
2017-06-28T06:59:54.353Z,71.55
2017-06-28T07:00:56.217Z,71.55
2017-06-28T07:01:58.088Z,70.23
2017-06-28T07:02:59.959Z,70.23
2017-06-28T07:04:01.916Z,70.42
2017-06-28T07:05:16.057Z,70.32
2017-06-28T07:06:17.951Z,70.14
2017-06-28T07:07:19.814Z,69.84
2017-06-28T07:08:21.687Z,69.20
2017-06-28T07:09:23.538Z,68.91
2017-06-28T07:10:25.368Z,68.68
2017-06-28T07:11:27.258Z,68.43
2017-06-28T07:12:29.129Z,68.98
2017-06-28T07:13:31.007Z,69.07
2017-06-28T07:14:45.159Z,69.20
2017-06-28T07:15:47.035Z,68.82
2017-06-28T07:16:48.955Z,68.72
2017-06-28T07:17:50.813Z,68.72
2017-06-28T07:18:52.640Z,68.04
2017-06-28T07:19:54.449Z,67.98
2017-06-28T07:20:56.341Z,67.40
2017-06-28T07:21:58.214Z,66.95
2017-06-28T07:23:00.105Z,66.50
2017-06-28T07:24:14.246Z,65.24
2017-06-28T07:25:16.123Z,64.01
2017-06-28T07:26:18.014Z,63.46
2017-06-28T07:27:19.912Z,62.49
2017-06-28T07:28:21.747Z,62.79
2017-06-28T07:29:23.575Z,62.13
2017-06-28T07:30:25.473Z,61.85
2017-06-28T07:31:27.363Z,61.75
2017-06-28T07:32:29.260Z,61.75
2017-06-28T07:33:43.405Z,61.52
2017-06-28T07:34:45.297Z,61.91
2017-06-28T07:35:47.166Z,62.69
2017-06-28T07:36:49.039Z,63.04
2017-06-28T07:37:50.855Z,63.43
2017-06-28T07:38:52.660Z,63.31
2017-06-28T07:39:54.537Z,63.98
2017-06-28T07:40:56.413Z,63.89
2017-06-28T07:41:58.306Z,64.47
2017-06-28T07:43:12.449Z,64.27
2017-06-28T07:44:14.320Z,64.66
2017-06-28T07:45:16.198Z,64.69
2017-06-28T07:46:18.089Z,64.20
2017-06-28T07:47:19.901Z,63.82
2017-06-28T07:48:21.736Z,63.56
2017-06-28T07:49:23.625Z,62.59
2017-06-28T07:50:25.503Z,62.43
2017-06-28T07:51:27.351Z,61.91
2017-06-28T07:52:41.496Z,62.10
2017-06-28T07:53:43.366Z,62.23
2017-06-28T07:54:45.241Z,62.23
2017-06-28T07:55:47.134Z,61.58
2017-06-28T07:56:48.946Z,61.39
2017-06-28T07:57:50.761Z,60.71
2017-06-28T07:58:52.656Z,60.71
2017-06-28T07:59:54.552Z,60.42
2017-06-28T08:00:56.453Z,60.61
2017-06-28T08:02:10.617Z,61.00
2017-06-28T08:03:12.489Z,60.71
2017-06-28T08:04:14.355Z,60.25
2017-06-28T08:05:16.256Z,61.19
2017-06-28T08:06:18.094Z,61.10
2017-06-28T08:07:19.927Z,62.23
2017-06-28T08:08:21.819Z,62.88
2017-06-28T08:09:23.693Z,62.88
2017-06-28T08:10:25.571Z,63.37
2017-06-28T08:11:39.731Z,62.88
2017-06-28T08:12:41.605Z,62.23
2017-06-28T08:13:43.476Z,61.75
2017-06-28T08:14:45.345Z,62.82
2017-06-28T08:15:47.161Z,62.55
2017-06-28T08:16:48.989Z,62.04
2017-06-28T08:17:50.870Z,62.43
2017-06-28T08:18:52.744Z,62.33
2017-06-28T08:19:54.615Z,62.23
2017-06-28T08:21:08.758Z,62.88
2017-06-28T08:22:10.647Z,62.69
2017-06-28T08:23:12.520Z,62.69
2017-06-28T08:24:14.415Z,62.79
2017-06-28T08:25:16.224Z,62.79
2017-06-28T08:26:18.034Z,62.98
2017-06-28T08:27:19.913Z,63.17
2017-06-28T08:28:21.811Z,63.40
2017-06-28T08:29:23.702Z,63.40
2017-06-28T08:30:37.848Z,62.91
2017-06-28T08:31:39.721Z,62.46
2017-06-28T08:32:41.592Z,62.04
2017-06-28T08:33:43.461Z,62.33
2017-06-28T08:34:45.270Z,62.62
2017-06-28T08:35:47.081Z,62.62
2017-06-28T08:36:48.956Z,61.78
2017-06-28T08:37:50.833Z,61.19
2017-06-28T08:38:52.727Z,60.06
2017-06-28T08:40:06.898Z,60.84
2017-06-28T08:41:08.787Z,61.04
2017-06-28T08:42:10.680Z,60.55
2017-06-28T08:43:12.572Z,60.58
2017-06-28T08:44:14.388Z,59.70
2017-06-28T08:45:16.201Z,59.51
2017-06-28T08:46:18.091Z,59.22
2017-06-28T08:47:19.966Z,59.03
2017-06-28T08:48:21.837Z,59.03
2017-06-28T08:49:35.997Z,59.41
2017-06-28T08:50:37.870Z,59.51
2017-06-28T08:51:39.743Z,59.41
2017-06-28T08:52:41.613Z,59.61
2017-06-28T08:53:43.426Z,60.28
2017-06-28T08:54:45.254Z,60.45
2017-06-28T08:55:47.130Z,61.78
2017-06-28T08:56:49.001Z,61.78
2017-06-28T08:57:50.881Z,62.43
2017-06-28T08:59:05.046Z,63.69
2017-06-28T09:00:06.937Z,63.95
2017-06-28T09:01:08.833Z,64.43
2017-06-28T09:02:10.718Z,63.95
2017-06-28T09:03:12.535Z,63.27
2017-06-28T09:04:14.354Z,63.37
2017-06-28T09:05:16.263Z,64.24
2017-06-28T09:06:18.150Z,64.04
2017-06-28T09:07:20.021Z,64.14
2017-06-28T09:08:34.164Z,64.17
2017-06-28T09:09:36.056Z,64.37
2017-06-28T09:10:37.950Z,64.37
2017-06-28T09:11:39.844Z,64.37
2017-06-28T09:12:41.677Z,65.01
2017-06-28T09:13:43.510Z,64.82
2017-06-28T09:14:45.401Z,65.30
2017-06-28T09:15:47.293Z,65.30
2017-06-28T09:16:49.169Z,65.30
2017-06-28T09:18:03.314Z,65.89
2017-06-28T09:19:05.206Z,65.59
2017-06-28T09:20:07.096Z,66.17
2017-06-28T09:21:08.969Z,65.79
2017-06-28T09:22:10.783Z,65.01
2017-06-28T09:23:12.595Z,65.43
2017-06-28T09:24:14.490Z,64.85
2017-06-28T09:25:16.362Z,64.85
2017-06-28T09:26:18.255Z,65.30
2017-06-28T09:27:32.462Z,65.69
2017-06-28T09:28:34.331Z,65.79
2017-06-28T09:29:36.222Z,65.98
2017-06-28T09:30:38.112Z,65.89
2017-06-28T09:31:39.947Z,66.20
2017-06-28T09:32:41.780Z,65.62
2017-06-28T09:33:43.675Z,65.82
2017-06-28T09:34:45.555Z,65.34
2017-06-28T09:35:47.441Z,65.08
2017-06-28T09:37:01.602Z,64.40
2017-06-28T09:38:03.495Z,64.40
2017-06-28T09:39:05.387Z,64.43
2017-06-28T09:40:07.261Z,64.04
2017-06-28T09:41:09.094Z,64.20
2017-06-28T09:42:10.919Z,64.20
2017-06-28T09:43:12.812Z,64.30
2017-06-28T09:44:14.687Z,64.59
2017-06-28T09:45:16.580Z,65.17
2017-06-28T09:46:30.746Z,64.72
2017-06-28T09:47:32.632Z,63.85
2017-06-28T09:48:34.508Z,63.29
2017-06-28T09:49:36.402Z,62.71
2017-06-28T09:50:38.234Z,62.91
2017-06-28T09:51:40.059Z,63.29
2017-06-28T09:52:41.930Z,63.49
2017-06-28T09:53:43.827Z,63.49
2017-06-28T09:54:45.712Z,63.68
2017-06-28T09:55:59.863Z,63.39
2017-06-28T09:57:01.755Z,63.20
2017-06-28T09:58:03.649Z,63.29
2017-06-28T09:59:05.544Z,63.59
2017-06-28T10:00:07.377Z,64.53
2017-06-28T10:01:09.188Z,63.95
2017-06-28T10:02:11.085Z,65.11
2017-06-28T10:03:12.976Z,65.50
2017-06-28T10:04:14.871Z,66.02
2017-06-28T10:05:29.031Z,64.26
2017-06-28T10:06:30.903Z,63.68
2017-06-28T10:07:32.777Z,64.46
2017-06-28T10:08:34.648Z,64.85
2017-06-28T10:09:36.462Z,64.95
2017-06-28T10:10:38.289Z,64.36
2017-06-28T10:11:40.169Z,64.59
2017-06-28T10:12:42.046Z,64.40
2017-06-28T10:13:43.940Z,63.52
2017-06-28T10:14:58.102Z,63.55
2017-06-28T10:15:59.998Z,63.23
2017-06-28T10:17:01.885Z,62.58
2017-06-28T10:18:03.757Z,62.68
2017-06-28T10:19:05.573Z,62.10
2017-06-28T10:20:07.379Z,62.13
2017-06-28T10:21:09.253Z,61.64
2017-06-28T10:22:11.131Z,60.57
2017-06-28T10:23:13.023Z,60.50
2017-06-28T10:24:27.215Z,60.02
2017-06-28T10:25:29.091Z,59.75
2017-06-28T10:26:30.985Z,59.95
2017-06-28T10:27:32.881Z,59.98
2017-06-28T10:28:34.713Z,58.91
2017-06-28T10:29:36.527Z,57.93
2017-06-28T10:30:38.403Z,58.51
2017-06-28T10:31:40.275Z,59.10
2017-06-28T10:32:42.148Z,59.66
2017-06-28T10:33:56.342Z,60.05
2017-06-28T10:34:58.241Z,59.46
2017-06-28T10:36:00.134Z,59.36
2017-06-28T10:37:02.032Z,59.92
2017-06-28T10:38:03.869Z,60.41
2017-06-28T10:39:05.701Z,60.34
2017-06-28T10:40:07.595Z,59.75
2017-06-28T10:41:09.471Z,58.97
2017-06-28T10:42:11.349Z,58.42
2017-06-28T10:43:25.516Z,57.74
2017-06-28T10:44:27.407Z,56.86
2017-06-28T10:45:29.298Z,56.96
2017-06-28T10:46:31.169Z,57.64
2017-06-28T10:47:32.978Z,57.64
2017-06-28T10:48:34.796Z,57.54
2017-06-28T10:49:36.690Z,57.42
2017-06-28T10:50:38.588Z,58.69
2017-06-28T10:51:40.482Z,59.17
2017-06-28T10:52:54.651Z,59.36
2017-06-28T10:53:56.522Z,59.17
2017-06-28T10:54:58.453Z,58.69
2017-06-28T10:56:00.351Z,58.69
2017-06-28T10:57:02.182Z,58.97
2017-06-28T10:58:04.015Z,58.78
2017-06-28T10:59:05.909Z,59.14
2017-06-28T11:00:07.796Z,59.72
2017-06-28T11:01:09.671Z,59.92
2017-06-28T11:02:23.806Z,60.11
2017-06-28T11:03:25.705Z,60.41
2017-06-28T11:04:27.575Z,60.70
2017-06-28T11:05:29.451Z,60.79
2017-06-28T11:06:31.267Z,61.18
2017-06-28T11:07:33.094Z,60.79
2017-06-28T11:08:34.989Z,61.28
2017-06-28T11:09:36.879Z,61.77
2017-06-28T11:10:39.123Z,61.38
2017-06-28T11:11:53.232Z,61.18
2017-06-28T11:12:55.109Z,61.47
2017-06-28T11:13:57.001Z,61.74
2017-06-28T11:14:58.913Z,60.89
2017-06-28T11:16:00.742Z,60.31
2017-06-28T11:17:02.557Z,59.85
2017-06-28T11:18:04.450Z,59.17
2017-06-28T11:19:06.345Z,59.59
2017-06-28T11:20:08.236Z,59.69
2017-06-28T11:21:22.377Z,59.49
2017-06-28T11:22:24.253Z,59.30
2017-06-28T11:23:26.237Z,59.39
2017-06-28T11:24:28.269Z,59.30
2017-06-28T11:25:30.170Z,58.74
2017-06-28T11:26:31.998Z,58.06
2017-06-28T11:27:33.871Z,57.86
2017-06-28T11:28:35.746Z,57.50
2017-06-28T11:29:37.635Z,57.89
2017-06-28T11:30:51.784Z,57.50
2017-06-28T11:31:53.676Z,57.37
2017-06-28T11:32:55.561Z,57.50
2017-06-28T11:33:57.452Z,56.79
2017-06-28T11:34:59.271Z,57.28
2017-06-28T11:36:01.104Z,57.18
2017-06-28T11:37:02.997Z,57.67
2017-06-28T11:38:04.885Z,57.86
2017-06-28T11:39:06.777Z,57.47
2017-06-28T11:40:20.938Z,57.18
2017-06-28T11:41:22.815Z,56.52
2017-06-28T11:42:24.703Z,56.14
2017-06-28T11:43:26.578Z,55.94
2017-06-28T11:44:28.389Z,55.85
2017-06-28T11:45:30.197Z,56.26
2017-06-28T11:46:32.065Z,56.65
2017-06-28T11:47:33.961Z,56.72
2017-06-28T11:48:35.809Z,56.62
2017-06-28T11:49:49.957Z,56.14
2017-06-28T11:50:51.830Z,56.82
2017-06-28T11:51:53.721Z,56.62
2017-06-28T11:52:55.590Z,56.82
2017-06-28T11:53:57.402Z,56.23
2017-06-28T11:54:59.211Z,56.40
2017-06-28T11:56:01.081Z,56.30
2017-06-28T11:57:02.957Z,56.79
2017-06-28T11:58:04.849Z,57.37
2017-06-28T11:59:19.021Z,57.47
2017-06-28T12:00:20.910Z,57.28
2017-06-28T12:01:22.781Z,57.37
2017-06-28T12:02:24.679Z,58.13
2017-06-28T12:03:26.512Z,59.00
2017-06-28T12:04:28.341Z,59.39
2017-06-28T12:05:30.214Z,59.46
2017-06-28T12:06:32.114Z,59.10
2017-06-28T12:07:34.009Z,59.10
2017-06-28T12:08:48.174Z,58.45
2017-06-28T12:09:50.045Z,58.64
2017-06-28T12:10:51.930Z,57.57
2017-06-28T12:11:53.828Z,56.89
2017-06-28T12:12:55.667Z,57.28
2017-06-28T12:13:57.495Z,56.72
2017-06-28T12:14:59.367Z,55.85
2017-06-28T12:16:01.256Z,56.82
2017-06-28T12:17:03.135Z,56.82
2017-06-28T12:18:17.305Z,57.11
2017-06-28T12:19:19.195Z,56.82
2017-06-28T12:20:21.069Z,56.43
2017-06-28T12:21:22.955Z,56.62
2017-06-28T12:22:24.777Z,56.26
2017-06-28T12:23:26.593Z,55.77
2017-06-28T12:24:28.476Z,54.93
2017-06-28T12:25:30.367Z,53.88
2017-06-28T12:26:32.276Z,53.13
2017-06-28T12:27:46.567Z,52.17
2017-06-28T12:28:48.416Z,51.49
2017-06-28T12:29:50.312Z,51.12
2017-06-28T12:30:52.208Z,50.63
2017-06-28T12:31:54.026Z,50.17
2017-06-28T12:32:55.841Z,49.87
2017-06-28T12:33:57.716Z,49.90
2017-06-28T12:34:59.614Z,49.41
2017-06-28T12:36:01.470Z,49.31
2017-06-28T12:37:15.623Z,49.31
2017-06-28T12:38:17.585Z,48.43
2017-06-28T12:39:19.450Z,48.43
2017-06-28T12:40:21.394Z,48.53
2017-06-28T12:41:23.242Z,48.14
2017-06-28T12:42:25.061Z,47.77
2017-06-28T12:43:26.952Z,47.57
2017-06-28T12:44:28.880Z,45.81
2017-06-28T12:45:30.862Z,44.95
2017-06-28T12:46:45.024Z,44.95
2017-06-28T12:47:46.915Z,44.68
2017-06-28T12:48:48.793Z,44.78
2017-06-28T12:49:50.668Z,44.48
2017-06-28T12:50:52.486Z,44.78
2017-06-28T12:51:54.318Z,44.29
2017-06-28T12:52:56.195Z,43.92
2017-06-28T12:53:58.071Z,43.41
2017-06-28T12:54:59.968Z,42.94
2017-06-28T12:56:14.137Z,42.45
2017-06-28T12:57:16.013Z,41.96
2017-06-28T12:58:17.906Z,41.96
2017-06-28T12:59:19.806Z,41.47
2017-06-28T13:00:21.622Z,41.88
2017-06-28T13:01:23.454Z,42.08
2017-06-28T13:02:25.293Z,41.39
2017-06-28T13:03:27.128Z,41.31
2017-06-28T13:04:29.078Z,41.29
2017-06-28T13:05:43.430Z,40.82
2017-06-28T13:06:45.417Z,40.72
2017-06-28T13:07:47.312Z,40.82
2017-06-28T13:08:49.207Z,40.53
2017-06-28T13:09:51.023Z,40.43
2017-06-28T13:10:52.855Z,40.43
2017-06-28T13:11:54.729Z,40.33
2017-06-28T13:12:56.606Z,40.33
2017-06-28T13:13:58.486Z,40.23
2017-06-28T13:15:12.655Z,40.23
2017-06-28T13:16:14.552Z,40.41
2017-06-28T13:17:16.450Z,40.61
2017-06-28T13:18:18.345Z,40.98
2017-06-28T13:19:20.160Z,40.86
2017-06-28T13:20:21.996Z,41.45
2017-06-28T13:21:23.891Z,41.35
2017-06-28T13:22:25.789Z,41.42
2017-06-28T13:23:27.683Z,41.42
2017-06-28T13:24:41.837Z,41.42
2017-06-28T13:25:43.731Z,41.80
2017-06-28T13:26:45.600Z,41.41
2017-06-28T13:27:47.490Z,41.41
2017-06-28T13:28:49.306Z,41.70
2017-06-28T13:29:51.123Z,41.89
2017-06-28T13:30:53.017Z,41.70
2017-06-28T13:31:54.911Z,41.80
2017-06-28T13:32:56.804Z,41.70
2017-06-28T13:34:10.949Z,41.41